Date,TemperatureHighF,TemperatureAvgF,TemperatureLowF,DewpointHighF,DewpointAvgF,DewpointLowF,HumidityHigh,HumidityAvg,HumidityLow,PressureMaxIn,PressureMinIn,WindSpeedMaxMPH,WindSpeedAvgMPH,GustSpeedMaxMPH,PrecipitationSumIn
2013-1-1,37,31,21,27,15,-1,86,56,23,0.00,40.00,9,4,28,0.00
2013-1-2,31,22,13,8,1,-9,68,41,21,0.00,40.00,15,4,27,0.00
2013-1-3,25,16,6,6,-13,-26,59,29,9,0.00,40.00,10,4,23,0.00
2013-1-4,38,27,15,21,12,3,79,55,23,0.00,40.00,10,3,18,0.00
2013-1-5,42,31,24,18,13,1,73,50,19,0.00,40.00,9,2,21,0.00
2013-1-6,41,33,24,33,27,16,94,79,55,0.00,40.00,5,1,13,0.00
2013-1-7,40,33,25,31,20,5,94,66,23,0.00,40.00,15,3,20,0.00
2013-1-8,46,36,22,31,22,16,94,63,29,0.00,40.00,6,2,16,0.00
2013-1-9,45,36,25,39,30,23,96,79,54,0.00,40.00,16,2,16,0.00
2013-1-10,47,40,30,29,13,2,67,37,16,0.00,40.00,14,5,25,0.00
2013-1-11,40,33,26,36,25,16,93,72,51,0.00,40.00,5,2,10,0.00
2013-1-12,45,42,38,45,42,37,100,99,93,0.00,40.00,6,2,9,0.00
2013-1-13,52,45,42,52,45,41,100,100,93,0.00,40.00,3,1,10,0.00
2013-1-16,35,34,33,35,34,33,100,100,99,0.00,40.00,9,2,14,0.00
2013-1-17,36,33,31,36,32,29,100,100,93,0.00,40.00,5,2,8,0.00
2013-1-18,29,23,16,1,-20,-36,49,17,6,0.00,40.00,17,7,30,0.00
2013-1-19,47,34,16,31,15,0,71,46,26,0.00,40.00,7,3,22,0.00
2013-1-20,55,44,30,33,15,-10,68,35,13,0.00,40.00,10,5,25,0.00
2013-1-21,30,26,22,23,-6,-17,94,30,13,0.00,40.00,9,4,20,0.00
2013-1-22,24,21,13,23,0,-26,95,50,10,0.00,40.00,10,4,23,0.00
2013-1-23,16,12,6,-5,-21,-28,48,23,13,0.00,40.00,12,5,24,0.00
2013-1-24,19,10,2,-16,-25,-37,43,21,6,0.00,40.00,16,5,29,0.00
2013-1-25,25,16,6,7,-25,-40,59,17,4,0.00,40.00,9,4,17,0.00
2013-1-26,24,17,10,11,-7,-33,83,43,8,0.00,40.00,13,6,23,0.00
2013-1-27,15,13,11,-6,-10,-17,45,34,22,0.00,40.00,6,3,13,0.00
2013-1-28,33,29,26,27,6,-19,95,52,10,0.00,40.00,3,2,9,0.00
2013-2-18,26,23,22,-7,-10,-18,26,23,13,0.00,40.00,2,2,8,0.00
2013-2-19,48,36,19,44,18,-15,100,52,19,0.00,40.00,7,2,18,0.00
2013-2-20,38,31,26,38,-3,-10,100,24,15,0.00,40.00,9,6,25,0.00
2013-2-21,34,28,25,8,0,-8,45,30,16,0.00,40.00,17,8,30,0.00
2013-2-22,41,32,27,21,11,5,63,42,37,0.00,40.00,12,9,15,0.00
2013-2-23,38,35,33,33,28,24,99,76,56,0.00,40.00,7,3,16,0.00
2013-2-24,40,34,31,40,34,30,100,100,93,0.00,40.00,12,8,24,0.00
2013-2-25,40,32,29,33,29,18,100,93,41,0.00,40.00,8,4,15,0.00
2013-2-26,46,36,28,32,25,7,97,68,20,0.00,40.00,7,2,12,0.00
2013-2-27,43,41,38,43,40,34,100,98,79,0.00,40.00,12,5,24,0.00
2013-3-11,44,42,42,42,42,41,100,98,92,0.00,40.00,5,3,13,0.00
2013-3-12,56,48,40,54,48,39,100,99,87,0.00,40.00,12,5,22,0.00
2013-3-13,53,44,31,52,28,-6,100,66,12,0.00,40.00,13,4,20,0.00
2013-3-14,38,32,28,27,9,-27,88,48,5,0.00,40.00,9,3,18,0.00
2013-3-15,41,33,22,21,2,-26,61,32,5,0.00,40.00,7,4,15,0.00
2013-3-16,40,34,29,22,0,-53,63,34,1,0.00,40.00,6,2,10,0.00
2013-3-17,39,32,24,18,-17,-57,70,22,1,0.00,40.00,14,4,22,0.00
2013-3-18,40,28,21,4,-29,-54,29,8,1,0.00,40.00,8,4,16,0.00
2013-3-19,37,33,30,37,33,30,100,100,93,0.00,40.00,13,6,20,0.00
2013-3-20,41,32,26,32,10,-12,100,48,10,0.00,40.00,10,4,23,0.00
2013-3-21,37,30,25,30,18,2,100,66,24,0.00,40.00,8,2,14,0.00
2013-3-22,43,33,26,30,10,-22,100,54,6,0.00,40.00,10,3,20,0.00
2013-3-23,38,31,28,19,9,-4,65,40,16,0.00,40.00,9,3,22,0.00
2013-3-24,33,33,33,3,3,3,28,28,28,0.00,40.00,5,5,10,0.00
2013-3-25,45,42,31,24,13,2,75,34,16,0.00,40.00,9,6,22,0.00
2013-3-26,48,40,33,33,12,-14,94,43,7,0.00,40.00,12,5,20,0.00
2013-3-27,53,38,27,22,7,-27,71,39,3,0.00,40.00,12,4,20,0.00
2013-3-28,48,42,38,36,23,-1,95,55,13,0.00,40.00,12,5,21,0.00
2013-3-29,58,45,31,39,17,-18,89,47,4,0.00,40.00,12,3,20,0.00
2013-3-30,55,43,38,25,18,-37,59,40,15,0.00,40.00,8,4,16,0.00
2013-3-31,59,55,47,34,-14,-42,60,18,1,0.00,40.00,13,5,21,0.00
2013-4-1,60,48,38,52,32,-14,99,63,10,0.00,40.00,12,7,23,0.00
2013-4-2,44,34,28,5,-16,-53,37,14,1,0.00,40.00,16,4,27,0.00
2013-4-3,47,36,30,-2,-21,-52,24,10,1,0.00,40.00,15,5,25,0.00
2013-4-4,54,39,28,24,-6,-37,55,20,3,0.00,40.00,10,4,17,0.00
2013-4-5,59,43,38,27,18,-35,64,45,10,0.00,40.00,12,2,23,0.00
2013-4-6,35,34,34,7,-5,-17,30,20,10,0.00,40.00,12,8,18,0.00
2013-4-7,52,49,27,33,11,-4,59,25,10,0.00,40.00,10,6,22,0.00
2013-4-8,47,46,45,42,42,41,88,84,79,0.00,40.00,5,3,10,0.00
2013-4-17,68,68,68,-100,-100,-100,0,0,100,0.00,40.00,8,5,12,0.00
2013-4-25,65,64,63,-100,-100,-100,0,0,100,0.00,40.00,7,5,15,0.00
2013-5-16,84,43,79,-100,-100,-100,22,5,2,0.00,40.00,18,8,20,0.00
2013-5-17,67,34,67,-100,-100,-100,11,9,7,0.00,40.00,10,10,15,0.00
2013-5-27,73,60,53,40,-1,-100,63,38,42,0.00,40.00,13,3,16,0.00
2013-5-28,77,61,42,52,25,-31,91,42,1,0.00,40.00,7,2,12,0.00
2013-5-29,61,61,61,52,52,51,74,72,70,0.00,40.00,2,2,7,0.00
2013-6-2,86,74,65,60,55,44,81,56,25,0.00,40.00,12,4,24,0.00
2013-6-3,71,67,64,71,63,58,100,88,75,0.00,40.00,12,3,14,0.00